ENGELøY FLYPLASS GRåDUSSAN
ENEN 675802N 0145933E
OPERATIONAL INFORMATION

WEATHER
METAR ENEN 092250Z AUTO 33007KT M03/M11 Q1011=
FORECAST LINK=
WINDREP LINK=

NOTAM
RAIN SENSOR U/S (ENEN/165)=
AVOID OVERFLY AREA 1 NM SOUTH OF FIELD. SEE PUBLISHED CHART "AVOID OVERFLY AREA" IN THE "PUBLICATION" SECTION OF THIS PAGE (ENEN/154)=
SAFETY PRECAUTIONS GIVEN BY THE CAA: AIRCRAFT MUST BE SECURED AGAINST THEFT. BEFORE DEPARTURE CHECK THAT THE AIRCRAFT HAS NOT BEEN SUBJECT TO SABOTAGE OR VANDALISM. CONTACT PEOPLE AND ASK WHO THEY ARE. REPORT SUSPICIOUS ACTIVITY TO POLICE ON 02800 (ENEN/118)=
WINDSHEAR AND DIFFICULT FLYING CONTITIONS REPORTED WHEN WIND FROM THE SECTOR EAST TO SOUTH. INFLUENCE OF WIND FROM OTHER DIRECTION IS NOT YET KNOWN (ENEN/106)=

PUBLICATION
CIVIL TWILIGHT 2016 (2016-01-01)=
AVOID OVERFLY AREA (2014-07-03)=
TEXTPAGE (2010-07-26)=
AERODROME CHART (2010-07-26)=
APPROACH CHART (2010-07-26)=

+4797542545 +4741328065
POST@ENGELOYFLYPLASS.NO
2016-12-09 23:09:44 UTC
END OF INFORMATION